sensor_id;sensor_type;location;lat;lon;timestamp;temperature;humidity
20487;DHT22;10402;49.012;8.370;2023-05-07T00:01:38;16.90;72.30
20487;DHT22;10402;49.012;8.370;2023-05-07T00:04:04;16.80;72.50
20487;DHT22;10402;49.012;8.370;2023-05-07T00:06:31;16.80;72.60
20487;DHT22;10402;49.012;8.370;2023-05-07T00:08:57;16.80;72.70
20487;DHT22;10402;49.012;8.370;2023-05-07T00:11:23;16.80;72.80
20487;DHT22;10402;49.012;8.370;2023-05-07T00:13:48;16.80;72.80
20487;DHT22;10402;49.012;8.370;2023-05-07T00:16:14;16.80;72.90
20487;DHT22;10402;49.012;8.370;2023-05-07T00:18:40;16.80;72.90
20487;DHT22;10402;49.012;8.370;2023-05-07T00:21:05;16.70;73.00
20487;DHT22;10402;49.012;8.370;2023-05-07T00:23:31;16.70;73.00
20487;DHT22;10402;49.012;8.370;2023-05-07T00:25:56;16.60;73.20
20487;DHT22;10402;49.012;8.370;2023-05-07T00:28:22;16.50;73.30
20487;DHT22;10402;49.012;8.370;2023-05-07T00:30:47;16.60;73.60
20487;DHT22;10402;49.012;8.370;2023-05-07T00:33:13;16.50;73.70
20487;DHT22;10402;49.012;8.370;2023-05-07T00:35:38;16.50;73.90
20487;DHT22;10402;49.012;8.370;2023-05-07T00:38:04;16.40;73.90
20487;DHT22;10402;49.012;8.370;2023-05-07T00:40:30;16.40;73.90
20487;DHT22;10402;49.012;8.370;2023-05-07T00:42:55;16.40;74.00
20487;DHT22;10402;49.012;8.370;2023-05-07T00:45:27;16.40;74.00
20487;DHT22;10402;49.012;8.370;2023-05-07T00:47:57;16.40;74.00
20487;DHT22;10402;49.012;8.370;2023-05-07T00:50:23;16.30;74.10
20487;DHT22;10402;49.012;8.370;2023-05-07T00:52:49;16.20;74.50
20487;DHT22;10402;49.012;8.370;2023-05-07T00:55:15;16.20;74.50
20487;DHT22;10402;49.012;8.370;2023-05-07T00:57:41;16.20;74.40
20487;DHT22;10402;49.012;8.370;2023-05-07T01:00:08;16.20;74.40
20487;DHT22;10402;49.012;8.370;2023-05-07T01:02:35;16.20;74.50
20487;DHT22;10402;49.012;8.370;2023-05-07T01:05:01;16.20;75.30
20487;DHT22;10402;49.012;8.370;2023-05-07T01:07:29;16.20;74.60
20487;DHT22;10402;49.012;8.370;2023-05-07T01:09:55;16.20;74.80
20487;DHT22;10402;49.012;8.370;2023-05-07T01:12:21;16.10;74.70
20487;DHT22;10402;49.012;8.370;2023-05-07T01:14:47;16.10;74.90
20487;DHT22;10402;49.012;8.370;2023-05-07T01:17:14;16.10;75.00
20487;DHT22;10402;49.012;8.370;2023-05-07T01:19:40;16.00;75.10
20487;DHT22;10402;49.012;8.370;2023-05-07T01:22:10;16.10;75.30
20487;DHT22;10402;49.012;8.370;2023-05-07T01:24:40;16.10;75.20
20487;DHT22;10402;49.012;8.370;2023-05-07T01:27:06;16.10;75.20
20487;DHT22;10402;49.012;8.370;2023-05-07T01:29:32;16.10;75.30
20487;DHT22;10402;49.012;8.370;2023-05-07T01:31:59;16.00;75.20
20487;DHT22;10402;49.012;8.370;2023-05-07T01:34:27;16.00;75.40
20487;DHT22;10402;49.012;8.370;2023-05-07T01:36:54;16.00;75.40
20487;DHT22;10402;49.012;8.370;2023-05-07T01:39:22;16.00;75.40
20487;DHT22;10402;49.012;8.370;2023-05-07T01:41:49;16.00;75.60
20487;DHT22;10402;49.012;8.370;2023-05-07T01:44:15;15.90;75.60
20487;DHT22;10402;49.012;8.370;2023-05-07T01:46:42;15.90;75.80
20487;DHT22;10402;49.012;8.370;2023-05-07T01:49:08;15.90;76.10
20487;DHT22;10402;49.012;8.370;2023-05-07T01:51:34;15.90;75.80
20487;DHT22;10402;49.012;8.370;2023-05-07T01:53:59;15.80;75.90
20487;DHT22;10402;49.012;8.370;2023-05-07T01:56:25;15.70;76.10
20487;DHT22;10402;49.012;8.370;2023-05-07T01:58:51;15.70;76.40
20487;DHT22;10402;49.012;8.370;2023-05-07T02:01:17;15.70;76.60
20487;DHT22;10402;49.012;8.370;2023-05-07T02:03:43;15.70;76.60
20487;DHT22;10402;49.012;8.370;2023-05-07T02:06:09;15.60;76.70
20487;DHT22;10402;49.012;8.370;2023-05-07T02:08:35;15.60;77.10
20487;DHT22;10402;49.012;8.370;2023-05-07T02:11:00;15.40;77.10
20487;DHT22;10402;49.012;8.370;2023-05-07T02:13:31;15.30;77.60
20487;DHT22;10402;49.012;8.370;2023-05-07T02:15:57;15.30;78.60
20487;DHT22;10402;49.012;8.370;2023-05-07T02:18:23;15.30;77.90
20487;DHT22;10402;49.012;8.370;2023-05-07T02:20:48;15.40;77.90
20487;DHT22;10402;49.012;8.370;2023-05-07T02:23:14;15.40;77.80
20487;DHT22;10402;49.012;8.370;2023-05-07T02:25:39;15.40;77.80
20487;DHT22;10402;49.012;8.370;2023-05-07T02:28:05;15.40;77.70
20487;DHT22;10402;49.012;8.370;2023-05-07T02:30:31;15.40;77.70
20487;DHT22;10402;49.012;8.370;2023-05-07T02:32:57;15.40;77.90
20487;DHT22;10402;49.012;8.370;2023-05-07T02:35:24;15.40;77.80
20487;DHT22;10402;49.012;8.370;2023-05-07T02:37:50;15.40;77.90
20487;DHT22;10402;49.012;8.370;2023-05-07T02:40:16;15.30;77.80
20487;DHT22;10402;49.012;8.370;2023-05-07T02:42:41;15.30;78.10
20487;DHT22;10402;49.012;8.370;2023-05-07T02:45:07;15.30;78.30
20487;DHT22;10402;49.012;8.370;2023-05-07T02:47:33;15.30;78.40
20487;DHT22;10402;49.012;8.370;2023-05-07T02:49:59;15.20;78.50
20487;DHT22;10402;49.012;8.370;2023-05-07T02:52:24;15.10;78.70
20487;DHT22;10402;49.012;8.370;2023-05-07T02:54:50;15.10;79.00
20487;DHT22;10402;49.012;8.370;2023-05-07T02:57:15;15.10;79.00
20487;DHT22;10402;49.012;8.370;2023-05-07T02:59:42;15.10;78.90
20487;DHT22;10402;49.012;8.370;2023-05-07T03:02:07;15.10;79.00
20487;DHT22;10402;49.012;8.370;2023-05-07T03:04:33;15.00;78.90
20487;DHT22;10402;49.012;8.370;2023-05-07T03:06:58;14.90;78.80
20487;DHT22;10402;49.012;8.370;2023-05-07T03:09:24;14.90;79.40
20487;DHT22;10402;49.012;8.370;2023-05-07T03:11:49;14.90;79.60
20487;DHT22;10402;49.012;8.370;2023-05-07T03:14:15;14.90;79.60
20487;DHT22;10402;49.012;8.370;2023-05-07T03:16:40;14.90;79.70
20487;DHT22;10402;49.012;8.370;2023-05-07T03:19:06;15.00;79.60
20487;DHT22;10402;49.012;8.370;2023-05-07T03:21:31;14.90;79.70
20487;DHT22;10402;49.012;8.370;2023-05-07T03:23:59;14.90;79.80
20487;DHT22;10402;49.012;8.370;2023-05-07T03:26:24;14.90;79.90
20487;DHT22;10402;49.012;8.370;2023-05-07T03:28:50;14.90;80.00
20487;DHT22;10402;49.012;8.370;2023-05-07T03:31:16;14.90;80.00
20487;DHT22;10402;49.012;8.370;2023-05-07T03:33:52;14.90;80.00
20487;DHT22;10402;49.012;8.370;2023-05-07T03:36:18;14.90;80.20
20487;DHT22;10402;49.012;8.370;2023-05-07T03:38:43;14.80;80.00
20487;DHT22;10402;49.012;8.370;2023-05-07T03:41:09;14.80;80.30
20487;DHT22;10402;49.012;8.370;2023-05-07T03:43:35;14.80;80.20
20487;DHT22;10402;49.012;8.370;2023-05-07T03:46:00;14.80;80.30
20487;DHT22;10402;49.012;8.370;2023-05-07T03:48:26;14.70;80.40
20487;DHT22;10402;49.012;8.370;2023-05-07T03:50:51;14.70;80.70
20487;DHT22;10402;49.012;8.370;2023-05-07T03:53:17;14.60;80.80
20487;DHT22;10402;49.012;8.370;2023-05-07T03:55:42;14.50;81.20
20487;DHT22;10402;49.012;8.370;2023-05-07T03:58:08;14.50;81.30
20487;DHT22;10402;49.012;8.370;2023-05-07T04:00:33;14.50;81.40
20487;DHT22;10402;49.012;8.370;2023-05-07T04:03:04;14.50;81.40
20487;DHT22;10402;49.012;8.370;2023-05-07T04:05:30;14.50;81.40
20487;DHT22;10402;49.012;8.370;2023-05-07T04:07:57;14.50;81.70
20487;DHT22;10402;49.012;8.370;2023-05-07T04:10:23;14.50;81.80
20487;DHT22;10402;49.012;8.370;2023-05-07T04:12:48;14.60;81.80
20487;DHT22;10402;49.012;8.370;2023-05-07T04:15:14;14.60;81.70
20487;DHT22;10402;49.012;8.370;2023-05-07T04:17:39;14.60;81.70
20487;DHT22;10402;49.012;8.370;2023-05-07T04:20:10;14.60;81.70
20487;DHT22;10402;49.012;8.370;2023-05-07T04:22:36;14.60;81.80
20487;DHT22;10402;49.012;8.370;2023-05-07T04:25:03;14.70;82.00
20487;DHT22;10402;49.012;8.370;2023-05-07T04:27:28;14.70;81.70
20487;DHT22;10402;49.012;8.370;2023-05-07T04:29:54;14.70;81.90
20487;DHT22;10402;49.012;8.370;2023-05-07T04:32:21;14.60;82.00
20487;DHT22;10402;49.012;8.370;2023-05-07T04:34:47;14.70;82.20
20487;DHT22;10402;49.012;8.370;2023-05-07T04:37:13;14.70;82.10
20487;DHT22;10402;49.012;8.370;2023-05-07T04:39:38;14.70;82.00
20487;DHT22;10402;49.012;8.370;2023-05-07T04:42:04;14.60;82.20
20487;DHT22;10402;49.012;8.370;2023-05-07T04:44:29;14.70;82.30
20487;DHT22;10402;49.012;8.370;2023-05-07T04:46:56;14.60;82.30
20487;DHT22;10402;49.012;8.370;2023-05-07T04:49:22;14.70;82.40
20487;DHT22;10402;49.012;8.370;2023-05-07T04:51:47;14.70;82.50
20487;DHT22;10402;49.012;8.370;2023-05-07T04:54:13;14.60;82.60
20487;DHT22;10402;49.012;8.370;2023-05-07T04:56:38;14.70;82.70
20487;DHT22;10402;49.012;8.370;2023-05-07T04:59:04;14.70;82.60
20487;DHT22;10402;49.012;8.370;2023-05-07T05:01:29;14.70;82.60
20487;DHT22;10402;49.012;8.370;2023-05-07T05:03:55;14.70;82.80
20487;DHT22;10402;49.012;8.370;2023-05-07T05:06:21;14.70;82.80
20487;DHT22;10402;49.012;8.370;2023-05-07T05:08:46;14.70;82.90
20487;DHT22;10402;49.012;8.370;2023-05-07T05:11:12;14.70;82.90
20487;DHT22;10402;49.012;8.370;2023-05-07T05:13:37;14.70;82.90
20487;DHT22;10402;49.012;8.370;2023-05-07T05:16:03;14.70;83.10
20487;DHT22;10402;49.012;8.370;2023-05-07T05:18:28;14.70;83.00
20487;DHT22;10402;49.012;8.370;2023-05-07T05:20:54;14.80;83.00
20487;DHT22;10402;49.012;8.370;2023-05-07T05:23:19;14.80;83.00
20487;DHT22;10402;49.012;8.370;2023-05-07T05:25:45;14.80;83.00
20487;DHT22;10402;49.012;8.370;2023-05-07T05:28:11;14.80;83.00
20487;DHT22;10402;49.012;8.370;2023-05-07T05:30:36;14.80;83.10
20487;DHT22;10402;49.012;8.370;2023-05-07T05:33:02;14.90;83.30
20487;DHT22;10402;49.012;8.370;2023-05-07T05:35:29;14.90;83.20
20487;DHT22;10402;49.012;8.370;2023-05-07T05:37:55;14.90;83.10
20487;DHT22;10402;49.012;8.370;2023-05-07T05:40:20;15.00;83.20
20487;DHT22;10402;49.012;8.370;2023-05-07T05:42:46;15.00;83.10
20487;DHT22;10402;49.012;8.370;2023-05-07T05:45:11;15.10;83.30
20487;DHT22;10402;49.012;8.370;2023-05-07T05:47:37;15.10;83.30
20487;DHT22;10402;49.012;8.370;2023-05-07T05:50:04;15.20;83.30
20487;DHT22;10402;49.012;8.370;2023-05-07T05:52:31;15.20;83.10
20487;DHT22;10402;49.012;8.370;2023-05-07T05:54:57;15.20;83.10
20487;DHT22;10402;49.012;8.370;2023-05-07T05:57:22;15.30;83.30
20487;DHT22;10402;49.012;8.370;2023-05-07T05:59:48;15.30;83.10
20487;DHT22;10402;49.012;8.370;2023-05-07T06:02:13;15.40;83.20
20487;DHT22;10402;49.012;8.370;2023-05-07T06:04:39;15.40;83.30
20487;DHT22;10402;49.012;8.370;2023-05-07T06:07:05;15.50;83.30
20487;DHT22;10402;49.012;8.370;2023-05-07T06:09:30;15.60;83.40
20487;DHT22;10402;49.012;8.370;2023-05-07T06:11:56;15.60;83.40
20487;DHT22;10402;49.012;8.370;2023-05-07T06:14:21;15.70;83.40
20487;DHT22;10402;49.012;8.370;2023-05-07T06:16:47;15.70;83.30
20487;DHT22;10402;49.012;8.370;2023-05-07T06:19:12;15.80;83.10
20487;DHT22;10402;49.012;8.370;2023-05-07T06:21:39;15.90;83.00
20487;DHT22;10402;49.012;8.370;2023-05-07T06:24:05;15.90;83.00
20487;DHT22;10402;49.012;8.370;2023-05-07T06:26:31;15.90;82.90
20487;DHT22;10402;49.012;8.370;2023-05-07T06:28:56;16.00;82.90
20487;DHT22;10402;49.012;8.370;2023-05-07T06:31:22;16.10;83.10
20487;DHT22;10402;49.012;8.370;2023-05-07T06:33:48;16.10;83.00
20487;DHT22;10402;49.012;8.370;2023-05-07T06:36:14;16.20;83.10
20487;DHT22;10402;49.012;8.370;2023-05-07T06:38:40;16.30;83.00
20487;DHT22;10402;49.012;8.370;2023-05-07T06:41:06;16.40;82.70
20487;DHT22;10402;49.012;8.370;2023-05-07T06:43:32;16.50;82.60
20487;DHT22;10402;49.012;8.370;2023-05-07T06:45:57;16.50;82.40
20487;DHT22;10402;49.012;8.370;2023-05-07T06:48:23;16.50;82.40
20487;DHT22;10402;49.012;8.370;2023-05-07T06:50:48;16.60;82.40
20487;DHT22;10402;49.012;8.370;2023-05-07T06:53:14;16.70;82.40
20487;DHT22;10402;49.012;8.370;2023-05-07T06:55:39;16.80;82.30
20487;DHT22;10402;49.012;8.370;2023-05-07T06:58:05;16.70;82.00
20487;DHT22;10402;49.012;8.370;2023-05-07T07:00:31;16.80;82.10
20487;DHT22;10402;49.012;8.370;2023-05-07T07:02:56;16.90;82.10
20487;DHT22;10402;49.012;8.370;2023-05-07T07:05:22;16.90;81.80
20487;DHT22;10402;49.012;8.370;2023-05-07T07:07:48;17.00;81.70
20487;DHT22;10402;49.012;8.370;2023-05-07T07:10:19;17.10;81.30
20487;DHT22;10402;49.012;8.370;2023-05-07T07:12:44;17.20;81.30
20487;DHT22;10402;49.012;8.370;2023-05-07T07:15:10;17.30;81.30
20487;DHT22;10402;49.012;8.370;2023-05-07T07:17:36;17.40;81.20
20487;DHT22;10402;49.012;8.370;2023-05-07T07:20:02;17.40;81.00
20487;DHT22;10402;49.012;8.370;2023-05-07T07:22:28;17.50;80.90
20487;DHT22;10402;49.012;8.370;2023-05-07T07:24:54;17.50;80.70
20487;DHT22;10402;49.012;8.370;2023-05-07T07:27:19;17.60;80.80
20487;DHT22;10402;49.012;8.370;2023-05-07T07:29:45;17.60;80.60
20487;DHT22;10402;49.012;8.370;2023-05-07T07:32:10;17.70;80.50
20487;DHT22;10402;49.012;8.370;2023-05-07T07:34:36;17.70;80.30
20487;DHT22;10402;49.012;8.370;2023-05-07T07:37:01;17.80;80.10
20487;DHT22;10402;49.012;8.370;2023-05-07T07:39:31;17.80;79.90
20487;DHT22;10402;49.012;8.370;2023-05-07T07:41:56;17.80;79.80
20487;DHT22;10402;49.012;8.370;2023-05-07T07:44:22;17.90;79.80
20487;DHT22;10402;49.012;8.370;2023-05-07T07:46:47;17.90;79.60
20487;DHT22;10402;49.012;8.370;2023-05-07T07:49:13;18.00;79.40
20487;DHT22;10402;49.012;8.370;2023-05-07T07:51:39;18.00;79.20
20487;DHT22;10402;49.012;8.370;2023-05-07T07:54:04;18.10;79.10
20487;DHT22;10402;49.012;8.370;2023-05-07T07:56:31;18.10;78.90
20487;DHT22;10402;49.012;8.370;2023-05-07T07:58:57;18.20;78.80
20487;DHT22;10402;49.012;8.370;2023-05-07T08:01:22;18.20;78.60
20487;DHT22;10402;49.012;8.370;2023-05-07T08:03:48;18.30;78.60
20487;DHT22;10402;49.012;8.370;2023-05-07T08:06:14;18.30;78.50
20487;DHT22;10402;49.012;8.370;2023-05-07T08:08:39;18.40;78.40
20487;DHT22;10402;49.012;8.370;2023-05-07T08:11:05;18.40;78.20
20487;DHT22;10402;49.012;8.370;2023-05-07T08:13:31;18.50;78.20
20487;DHT22;10402;49.012;8.370;2023-05-07T08:15:56;18.60;78.10
20487;DHT22;10402;49.012;8.370;2023-05-07T08:18:22;18.60;77.90
20487;DHT22;10402;49.012;8.370;2023-05-07T08:20:50;18.60;77.80
20487;DHT22;10402;49.012;8.370;2023-05-07T08:23:15;18.60;77.60
20487;DHT22;10402;49.012;8.370;2023-05-07T08:25:41;18.60;77.60
20487;DHT22;10402;49.012;8.370;2023-05-07T08:28:08;18.60;77.50
20487;DHT22;10402;49.012;8.370;2023-05-07T08:30:33;18.70;77.60
20487;DHT22;10402;49.012;8.370;2023-05-07T08:33:00;18.70;77.30
20487;DHT22;10402;49.012;8.370;2023-05-07T08:35:26;18.70;77.10
20487;DHT22;10402;49.012;8.370;2023-05-07T08:37:52;18.80;77.20
20487;DHT22;10402;49.012;8.370;2023-05-07T08:40:18;18.80;77.10
20487;DHT22;10402;49.012;8.370;2023-05-07T08:42:44;18.90;76.90
20487;DHT22;10402;49.012;8.370;2023-05-07T08:45:10;18.90;76.70
20487;DHT22;10402;49.012;8.370;2023-05-07T08:47:44;19.00;76.60
20487;DHT22;10402;49.012;8.370;2023-05-07T08:50:11;19.00;76.40
20487;DHT22;10402;49.012;8.370;2023-05-07T08:52:37;19.10;76.20
20487;DHT22;10402;49.012;8.370;2023-05-07T08:55:04;19.10;76.10
20487;DHT22;10402;49.012;8.370;2023-05-07T08:57:30;19.20;76.70
20487;DHT22;10402;49.012;8.370;2023-05-07T08:59:56;19.30;75.80
20487;DHT22;10402;49.012;8.370;2023-05-07T09:02:21;19.30;75.70
20487;DHT22;10402;49.012;8.370;2023-05-07T09:04:47;19.40;75.60
20487;DHT22;10402;49.012;8.370;2023-05-07T09:07:13;19.50;75.50
20487;DHT22;10402;49.012;8.370;2023-05-07T09:09:38;19.60;75.40
20487;DHT22;10402;49.012;8.370;2023-05-07T09:12:04;19.60;75.10
20487;DHT22;10402;49.012;8.370;2023-05-07T09:14:30;19.60;75.10
20487;DHT22;10402;49.012;8.370;2023-05-07T09:16:56;19.70;75.00
20487;DHT22;10402;49.012;8.370;2023-05-07T09:19:23;19.80;74.90
20487;DHT22;10402;49.012;8.370;2023-05-07T09:21:49;19.80;74.80
20487;DHT22;10402;49.012;8.370;2023-05-07T09:24:15;19.80;74.60
20487;DHT22;10402;49.012;8.370;2023-05-07T09:26:41;19.90;74.60
20487;DHT22;10402;49.012;8.370;2023-05-07T09:29:08;19.90;74.40
20487;DHT22;10402;49.012;8.370;2023-05-07T09:31:38;20.00;74.50
20487;DHT22;10402;49.012;8.370;2023-05-07T09:34:04;20.00;74.10
20487;DHT22;10402;49.012;8.370;2023-05-07T09:36:31;20.10;74.00
20487;DHT22;10402;49.012;8.370;2023-05-07T09:39:00;20.10;73.80
20487;DHT22;10402;49.012;8.370;2023-05-07T09:41:26;20.10;74.40
20487;DHT22;10402;49.012;8.370;2023-05-07T09:43:55;20.20;73.50
20487;DHT22;10402;49.012;8.370;2023-05-07T09:46:25;20.20;73.40
20487;DHT22;10402;49.012;8.370;2023-05-07T09:48:53;20.20;73.20
20487;DHT22;10402;49.012;8.370;2023-05-07T09:51:39;20.30;73.30
20487;DHT22;10402;49.012;8.370;2023-05-07T09:54:07;20.30;73.20
20487;DHT22;10402;49.012;8.370;2023-05-07T09:56:33;20.50;73.10
20487;DHT22;10402;49.012;8.370;2023-05-07T09:59:00;20.50;73.10
20487;DHT22;10402;49.012;8.370;2023-05-07T10:01:27;20.50;72.70
20487;DHT22;10402;49.012;8.370;2023-05-07T10:03:53;20.60;72.70
20487;DHT22;10402;49.012;8.370;2023-05-07T10:06:23;20.60;72.50
20487;DHT22;10402;49.012;8.370;2023-05-07T10:08:50;20.60;72.40
20487;DHT22;10402;49.012;8.370;2023-05-07T10:11:17;20.60;72.30
20487;DHT22;10402;49.012;8.370;2023-05-07T10:13:43;20.70;72.30
20487;DHT22;10402;49.012;8.370;2023-05-07T10:16:09;20.70;72.10
20487;DHT22;10402;49.012;8.370;2023-05-07T10:18:34;20.80;72.10
20487;DHT22;10402;49.012;8.370;2023-05-07T10:21:20;20.80;72.00
20487;DHT22;10402;49.012;8.370;2023-05-07T10:23:50;20.90;72.00
20487;DHT22;10402;49.012;8.370;2023-05-07T10:26:18;21.00;71.90
20487;DHT22;10402;49.012;8.370;2023-05-07T10:28:49;21.00;71.70
20487;DHT22;10402;49.012;8.370;2023-05-07T10:31:39;21.00;71.40
20487;DHT22;10402;49.012;8.370;2023-05-07T10:34:10;21.10;71.30
20487;DHT22;10402;49.012;8.370;2023-05-07T10:36:37;21.10;71.20
20487;DHT22;10402;49.012;8.370;2023-05-07T10:39:02;21.20;71.10
20487;DHT22;10402;49.012;8.370;2023-05-07T10:41:28;21.20;71.00
20487;DHT22;10402;49.012;8.370;2023-05-07T10:43:54;21.20;71.70
20487;DHT22;10402;49.012;8.370;2023-05-07T10:46:22;21.30;70.80
20487;DHT22;10402;49.012;8.370;2023-05-07T10:51:29;21.30;70.40
20487;DHT22;10402;49.012;8.370;2023-05-07T10:56:37;21.40;70.10
20487;DHT22;10402;49.012;8.370;2023-05-07T11:02:01;21.50;69.90
20487;DHT22;10402;49.012;8.370;2023-05-07T11:04:32;21.50;69.60
20487;DHT22;10402;49.012;8.370;2023-05-07T11:09:57;21.60;69.40
20487;DHT22;10402;49.012;8.370;2023-05-07T11:15:08;21.70;69.20
20487;DHT22;10402;49.012;8.370;2023-05-07T11:17:35;21.70;68.80
20487;DHT22;10402;49.012;8.370;2023-05-07T11:20:01;21.80;68.70
20487;DHT22;10402;49.012;8.370;2023-05-07T11:24:59;21.80;68.60
20487;DHT22;10402;49.012;8.370;2023-05-07T11:27:25;21.90;68.50
20487;DHT22;10402;49.012;8.370;2023-05-07T11:29:54;21.90;68.40
20487;DHT22;10402;49.012;8.370;2023-05-07T11:32:38;21.90;68.20
20487;DHT22;10402;49.012;8.370;2023-05-07T11:35:04;22.00;68.20
20487;DHT22;10402;49.012;8.370;2023-05-07T11:37:30;22.10;68.00
20487;DHT22;10402;49.012;8.370;2023-05-07T11:40:08;22.20;67.90
20487;DHT22;10402;49.012;8.370;2023-05-07T11:42:37;22.20;67.60
20487;DHT22;10402;49.012;8.370;2023-05-07T11:45:04;22.30;67.40
20487;DHT22;10402;49.012;8.370;2023-05-07T11:47:31;22.40;67.20
20487;DHT22;10402;49.012;8.370;2023-05-07T11:50:06;22.40;67.00
20487;DHT22;10402;49.012;8.370;2023-05-07T11:52:33;22.50;66.60
20487;DHT22;10402;49.012;8.370;2023-05-07T11:55:00;22.50;66.30
20487;DHT22;10402;49.012;8.370;2023-05-07T11:57:27;22.60;66.20
20487;DHT22;10402;49.012;8.370;2023-05-07T11:59:57;22.60;66.00
20487;DHT22;10402;49.012;8.370;2023-05-07T12:02:24;22.60;66.00
20487;DHT22;10402;49.012;8.370;2023-05-07T12:04:50;22.60;65.90
20487;DHT22;10402;49.012;8.370;2023-05-07T12:07:16;22.70;65.90
20487;DHT22;10402;49.012;8.370;2023-05-07T12:09:46;22.70;65.70
20487;DHT22;10402;49.012;8.370;2023-05-07T12:12:12;22.70;65.60
20487;DHT22;10402;49.012;8.370;2023-05-07T12:14:41;22.70;65.50
20487;DHT22;10402;49.012;8.370;2023-05-07T12:17:08;22.80;65.60
20487;DHT22;10402;49.012;8.370;2023-05-07T12:19:39;22.80;65.50
20487;DHT22;10402;49.012;8.370;2023-05-07T12:22:07;22.80;65.40
20487;DHT22;10402;49.012;8.370;2023-05-07T12:24:46;22.90;65.20
20487;DHT22;10402;49.012;8.370;2023-05-07T12:27:13;23.00;65.10
20487;DHT22;10402;49.012;8.370;2023-05-07T12:29:38;23.00;64.90
20487;DHT22;10402;49.012;8.370;2023-05-07T12:32:06;23.00;64.90
20487;DHT22;10402;49.012;8.370;2023-05-07T12:34:32;23.10;65.10
20487;DHT22;10402;49.012;8.370;2023-05-07T12:37:02;23.10;65.00
20487;DHT22;10402;49.012;8.370;2023-05-07T12:39:28;23.10;65.00
20487;DHT22;10402;49.012;8.370;2023-05-07T12:41:55;23.10;65.00
20487;DHT22;10402;49.012;8.370;2023-05-07T12:44:25;23.20;65.00
20487;DHT22;10402;49.012;8.370;2023-05-07T12:46:54;23.20;64.90
20487;DHT22;10402;49.012;8.370;2023-05-07T12:49:20;23.20;64.60
20487;DHT22;10402;49.012;8.370;2023-05-07T12:51:47;23.30;64.60
20487;DHT22;10402;49.012;8.370;2023-05-07T12:54:13;23.30;64.30
20487;DHT22;10402;49.012;8.370;2023-05-07T12:56:39;23.40;64.20
20487;DHT22;10402;49.012;8.370;2023-05-07T12:59:05;23.40;64.20
20487;DHT22;10402;49.012;8.370;2023-05-07T13:01:31;23.50;64.20
20487;DHT22;10402;49.012;8.370;2023-05-07T13:04:03;23.50;63.90
20487;DHT22;10402;49.012;8.370;2023-05-07T13:06:30;23.50;63.70
20487;DHT22;10402;49.012;8.370;2023-05-07T13:08:56;23.50;63.50
20487;DHT22;10402;49.012;8.370;2023-05-07T13:11:22;23.60;63.40
20487;DHT22;10402;49.012;8.370;2023-05-07T13:13:48;23.60;63.30
20487;DHT22;10402;49.012;8.370;2023-05-07T13:16:13;23.70;63.20
20487;DHT22;10402;49.012;8.370;2023-05-07T13:18:40;23.70;63.00
20487;DHT22;10402;49.012;8.370;2023-05-07T13:21:05;23.80;63.10
20487;DHT22;10402;49.012;8.370;2023-05-07T13:23:31;23.80;63.10
20487;DHT22;10402;49.012;8.370;2023-05-07T13:25:56;23.90;63.20
20487;DHT22;10402;49.012;8.370;2023-05-07T13:28:23;23.90;63.10
20487;DHT22;10402;49.012;8.370;2023-05-07T13:30:49;24.00;63.20
20487;DHT22;10402;49.012;8.370;2023-05-07T13:33:17;24.00;63.10
20487;DHT22;10402;49.012;8.370;2023-05-07T13:35:43;24.00;63.00
20487;DHT22;10402;49.012;8.370;2023-05-07T13:38:08;24.00;63.00
20487;DHT22;10402;49.012;8.370;2023-05-07T13:40:34;24.00;63.00
20487;DHT22;10402;49.012;8.370;2023-05-07T13:43:00;24.00;63.00
20487;DHT22;10402;49.012;8.370;2023-05-07T13:45:29;23.90;62.90
20487;DHT22;10402;49.012;8.370;2023-05-07T13:47:55;23.90;62.90
20487;DHT22;10402;49.012;8.370;2023-05-07T13:50:21;23.90;62.80
20487;DHT22;10402;49.012;8.370;2023-05-07T13:52:47;23.90;62.70
20487;DHT22;10402;49.012;8.370;2023-05-07T13:55:18;24.00;62.70
20487;DHT22;10402;49.012;8.370;2023-05-07T13:57:44;24.00;62.40
20487;DHT22;10402;49.012;8.370;2023-05-07T14:00:11;24.00;62.30
20487;DHT22;10402;49.012;8.370;2023-05-07T14:02:36;24.00;62.00
20487;DHT22;10402;49.012;8.370;2023-05-07T14:05:02;23.90;61.70
20487;DHT22;10402;49.012;8.370;2023-05-07T14:07:28;23.80;61.50
20487;DHT22;10402;49.012;8.370;2023-05-07T14:09:54;23.70;61.40
20487;DHT22;10402;49.012;8.370;2023-05-07T14:12:19;23.70;61.50
20487;DHT22;10402;49.012;8.370;2023-05-07T14:14:45;23.60;61.60
20487;DHT22;10402;49.012;8.370;2023-05-07T14:17:12;23.50;61.80
20487;DHT22;10402;49.012;8.370;2023-05-07T14:19:37;23.50;62.20
20487;DHT22;10402;49.012;8.370;2023-05-07T14:22:03;23.50;62.50
20487;DHT22;10402;49.012;8.370;2023-05-07T14:24:28;23.50;62.70
20487;DHT22;10402;49.012;8.370;2023-05-07T14:26:54;23.40;62.60
20487;DHT22;10402;49.012;8.370;2023-05-07T14:29:20;23.40;62.60
20487;DHT22;10402;49.012;8.370;2023-05-07T14:31:45;23.40;62.60
20487;DHT22;10402;49.012;8.370;2023-05-07T14:34:11;23.40;62.70
20487;DHT22;10402;49.012;8.370;2023-05-07T14:36:36;23.50;62.70
20487;DHT22;10402;49.012;8.370;2023-05-07T14:39:03;23.50;62.70
20487;DHT22;10402;49.012;8.370;2023-05-07T14:41:29;23.50;62.70
20487;DHT22;10402;49.012;8.370;2023-05-07T14:43:54;23.50;62.60
20487;DHT22;10402;49.012;8.370;2023-05-07T14:46:20;23.50;62.30
20487;DHT22;10402;49.012;8.370;2023-05-07T14:48:46;23.50;62.10
20487;DHT22;10402;49.012;8.370;2023-05-07T14:51:12;23.50;62.60
20487;DHT22;10402;49.012;8.370;2023-05-07T14:53:38;23.50;61.70
20487;DHT22;10402;49.012;8.370;2023-05-07T14:56:04;23.40;61.30
20487;DHT22;10402;49.012;8.370;2023-05-07T14:58:30;23.40;61.10
20487;DHT22;10402;49.012;8.370;2023-05-07T15:00:56;23.40;61.00
20487;DHT22;10402;49.012;8.370;2023-05-07T15:03:21;23.30;60.90
20487;DHT22;10402;49.012;8.370;2023-05-07T15:05:47;23.30;60.90
20487;DHT22;10402;49.012;8.370;2023-05-07T15:08:13;23.30;60.90
20487;DHT22;10402;49.012;8.370;2023-05-07T15:10:38;23.30;60.70
20487;DHT22;10402;49.012;8.370;2023-05-07T15:13:09;23.30;60.60
20487;DHT22;10402;49.012;8.370;2023-05-07T15:15:35;23.30;60.50
20487;DHT22;10402;49.012;8.370;2023-05-07T15:18:01;23.30;60.60
20487;DHT22;10402;49.012;8.370;2023-05-07T15:20:26;23.30;60.70
20487;DHT22;10402;49.012;8.370;2023-05-07T15:22:52;23.30;60.70
20487;DHT22;10402;49.012;8.370;2023-05-07T15:25:18;23.20;60.70
20487;DHT22;10402;49.012;8.370;2023-05-07T15:27:43;23.20;60.90
20487;DHT22;10402;49.012;8.370;2023-05-07T15:30:09;23.20;60.90
20487;DHT22;10402;49.012;8.370;2023-05-07T15:32:37;23.20;60.80
20487;DHT22;10402;49.012;8.370;2023-05-07T15:35:04;23.20;61.10
20487;DHT22;10402;49.012;8.370;2023-05-07T15:37:32;23.10;61.40
20487;DHT22;10402;49.012;8.370;2023-05-07T15:39:58;23.10;61.60
20487;DHT22;10402;49.012;8.370;2023-05-07T15:42:24;23.00;61.70